Aviation Digital Data Service (ADDS)

Output produced by METARs form (1015 UTC 21 November 2017)
found at http://aviationweather.gov/adds/metars/
 
KMIV 210530Z 2106/2206 21006KT P6SM SCT250 
     FM211400 21010G21KT P6SM SCT250 
     FM212100 19007KT P6SM BKN200 
     FM220300 20010KT P6SM OVC050